createdAt,value
2019-04-02T00:01:14.259Z,6.13
2019-04-02T00:03:44.859Z,6.90
2019-04-02T00:06:15.333Z,6.50
2019-04-02T00:08:45.792Z,5.80
2019-04-02T00:11:16.291Z,6.27
2019-04-02T00:13:47.367Z,5.93
2019-04-02T00:16:18.753Z,6.00
2019-04-02T00:18:49.197Z,6.63
2019-04-02T00:21:19.695Z,6.70
2019-04-02T00:23:50.131Z,6.03
2019-04-02T00:26:20.605Z,5.83
2019-04-02T00:28:51.036Z,7.27
2019-04-02T00:31:21.524Z,6.77
2019-04-02T00:33:52.821Z,5.90
2019-04-02T00:36:23.288Z,5.83
2019-04-02T00:38:53.720Z,6.13
2019-04-02T00:41:24.278Z,5.77
2019-04-02T00:43:55.537Z,6.20
2019-04-02T00:46:26.474Z,6.53
2019-04-02T00:48:56.907Z,6.20
2019-04-02T00:51:27.403Z,6.50
2019-04-02T00:53:57.878Z,4.93
2019-04-02T00:56:29.012Z,5.00
2019-04-02T00:58:59.696Z,5.23
2019-04-02T01:01:30.168Z,5.60
2019-04-02T01:04:00.622Z,5.10
2019-04-02T01:06:31.125Z,5.10
2019-04-02T01:09:01.463Z,4.97
2019-04-02T01:11:31.984Z,5.10
2019-04-02T01:14:02.442Z,4.77
2019-04-02T01:16:32.958Z,4.80
2019-04-02T01:19:03.322Z,5.10
2019-04-02T01:21:34.299Z,5.67
2019-04-02T01:24:05.622Z,4.40
2019-04-02T01:26:36.084Z,5.40
2019-04-02T01:29:15.298Z,4.47
2019-04-02T01:31:45.854Z,5.13
2019-04-02T01:34:17.362Z,6.50
2019-04-02T01:36:47.821Z,6.13
2019-04-02T01:39:18.239Z,5.93
2019-04-02T01:41:48.787Z,4.53
2019-04-02T01:44:19.156Z,4.43
2019-04-02T01:46:49.638Z,3.63
2019-04-02T01:49:19.953Z,4.43
2019-04-02T01:51:50.433Z,5.30
2019-04-02T01:54:20.865Z,4.90
2019-04-02T01:56:52.371Z,5.30
2019-04-02T01:59:23.239Z,4.43
2019-04-02T02:01:53.638Z,4.30
2019-04-02T02:04:24.089Z,4.87
2019-04-02T02:06:54.472Z,4.70
2019-04-02T02:09:24.885Z,4.33
2019-04-02T02:11:55.343Z,4.13
2019-04-02T02:14:27.278Z,4.40
2019-04-02T02:16:57.983Z,3.77
2019-04-02T02:19:28.413Z,3.73
2019-04-02T02:21:58.787Z,3.47
2019-04-02T02:24:29.229Z,4.57
2019-04-02T02:26:59.707Z,4.27
2019-04-02T02:29:30.204Z,3.77
2019-04-02T02:32:01.023Z,3.77
2019-04-02T02:34:32.214Z,4.03
2019-04-02T02:37:02.724Z,4.03
2019-04-02T02:39:33.136Z,5.33
2019-04-02T02:42:12.344Z,3.63
2019-04-02T02:44:44.124Z,3.80
2019-04-02T02:47:16.144Z,3.40
2019-04-02T02:49:48.377Z,3.80
2019-04-02T02:52:20.357Z,3.57
2019-04-02T02:54:51.687Z,4.07
2019-04-02T02:57:24.045Z,3.30
2019-04-02T02:59:56.716Z,3.07
2019-04-02T03:02:28.120Z,2.83
2019-04-02T03:05:01.493Z,2.40
2019-04-02T03:07:32.895Z,3.53
2019-04-02T03:10:04.992Z,2.83
2019-04-02T03:12:36.789Z,3.33
2019-04-02T03:15:09.520Z,3.13
2019-04-02T03:17:42.495Z,2.03
2019-04-02T03:20:12.262Z,2.20
2019-04-02T03:22:42.657Z,2.27
2019-04-02T03:25:13.013Z,2.37
2019-04-02T03:27:43.513Z,1.93
2019-04-02T03:30:16.771Z,2.40
2019-04-02T03:32:47.130Z,2.30
2019-04-02T03:35:18.447Z,2.20
2019-04-02T03:37:48.842Z,2.70
2019-04-02T03:40:19.362Z,2.63
2019-04-02T03:42:49.903Z,2.17
2019-04-02T03:45:20.235Z,2.40
2019-04-02T03:47:50.703Z,2.43
2019-04-02T03:50:21.044Z,2.13
2019-04-02T03:52:51.400Z,2.90
2019-04-02T03:55:23.045Z,2.53
2019-04-02T03:57:54.532Z,2.03
2019-04-02T04:00:25.892Z,2.30
2019-04-02T04:02:56.609Z,2.33
2019-04-02T04:05:26.952Z,2.03
2019-04-02T04:07:57.339Z,2.10
2019-04-02T04:10:48.973Z,2.07
2019-04-02T04:13:21.491Z,2.20
2019-04-02T04:15:51.371Z,2.50
2019-04-02T04:18:21.843Z,1.70
2019-04-02T04:20:52.293Z,2.63
2019-04-02T04:23:24.620Z,2.20
2019-04-02T04:25:57.207Z,2.70
2019-04-02T04:28:26.866Z,2.43
2019-04-02T04:30:57.206Z,1.97
2019-04-02T04:33:27.568Z,2.10
2019-04-02T04:35:58.804Z,2.43
2019-04-02T04:38:29.183Z,2.27
2019-04-02T04:40:59.523Z,2.40
2019-04-02T04:43:29.972Z,2.57
2019-04-02T04:46:01.161Z,2.70
2019-04-02T04:48:32.453Z,2.43
2019-04-02T04:51:02.881Z,2.50
2019-04-02T04:53:33.250Z,2.10
2019-04-02T04:56:03.869Z,2.13
2019-04-02T04:58:34.275Z,2.30
2019-04-02T05:01:04.622Z,2.40
2019-04-02T05:04:11.006Z,2.03
2019-04-02T05:06:41.373Z,1.73
2019-04-02T05:09:11.750Z,2.70
2019-04-02T05:11:42.244Z,1.83
2019-04-02T05:14:14.268Z,2.30
2019-04-02T05:16:44.697Z,3.03
2019-04-02T05:19:15.777Z,2.43
2019-04-02T05:21:46.692Z,2.00
2019-04-02T05:24:17.062Z,2.30
2019-04-02T05:26:47.412Z,2.50
2019-04-02T05:29:17.775Z,2.80
2019-04-02T05:31:48.231Z,2.27
2019-04-02T05:34:18.607Z,2.90
2019-04-02T05:36:52.380Z,1.93
2019-04-02T05:39:22.995Z,2.50
2019-04-02T05:41:53.444Z,1.67
2019-04-02T05:44:23.885Z,2.43
2019-04-02T05:46:54.215Z,1.70
2019-04-02T05:49:24.585Z,2.43
2019-04-02T05:51:55.505Z,1.90
2019-04-02T05:54:26.239Z,1.90
2019-04-02T05:56:56.582Z,9.50
2019-04-02T05:59:27.056Z,2.37
2019-04-02T06:01:57.378Z,1.60
2019-04-02T06:04:27.734Z,1.47
2019-04-02T06:06:58.051Z,2.37
2019-04-02T06:09:28.426Z,2.00
2019-04-02T06:12:01.376Z,2.63
2019-04-02T06:14:31.441Z,2.50
2019-04-02T06:17:01.843Z,2.50
2019-04-02T06:19:32.233Z,2.67
2019-04-02T06:22:02.662Z,2.70
2019-04-02T06:24:33.138Z,2.07
2019-04-02T06:27:03.495Z,2.10
2019-04-02T06:29:33.879Z,2.67
2019-04-02T06:32:04.220Z,2.50
2019-04-02T06:34:34.590Z,2.43
2019-04-02T06:37:05.916Z,2.00
2019-04-02T06:39:36.361Z,2.53
2019-04-02T06:42:06.696Z,1.63
2019-04-02T06:44:37.130Z,2.03
2019-04-02T06:47:07.475Z,3.33
2019-04-02T06:49:51.812Z,2.70
2019-04-02T06:52:22.142Z,3.20
2019-04-02T06:54:52.527Z,2.83
2019-04-02T06:57:22.854Z,1.87
2019-04-02T06:59:53.235Z,3.33
2019-04-02T07:02:23.766Z,2.40
2019-04-02T07:04:54.253Z,1.80
2019-04-02T07:07:24.597Z,3.60
2019-04-02T07:09:55.029Z,2.77
2019-04-02T07:12:25.339Z,3.60
2019-04-02T07:14:56.099Z,2.70
2019-04-02T07:17:29.244Z,2.70
2019-04-02T07:20:03.981Z,3.10
2019-04-02T07:22:35.445Z,2.87
2019-04-02T07:25:08.172Z,2.60
2019-04-02T07:27:38.621Z,4.10
2019-04-02T07:30:10.585Z,4.07
2019-04-02T07:32:40.905Z,4.73
2019-04-02T07:35:11.583Z,5.70
2019-04-02T07:37:43.055Z,5.17
2019-04-02T07:40:13.631Z,3.37
2019-04-02T07:42:43.968Z,2.60
2019-04-02T07:45:14.529Z,2.03
2019-04-02T07:47:46.082Z,2.60
2019-04-02T07:50:16.516Z,1.87
2019-04-02T07:52:46.797Z,2.50
2019-04-02T07:55:17.287Z,2.30
2019-04-02T07:57:49.050Z,2.50
2019-04-02T08:00:22.020Z,2.00
2019-04-02T08:02:52.684Z,2.17
2019-04-02T08:05:23.511Z,2.67
2019-04-02T08:07:53.968Z,2.40
2019-04-02T08:10:24.390Z,2.83
2019-04-02T08:12:57.296Z,2.60
2019-04-02T08:15:27.738Z,2.50
2019-04-02T08:17:58.072Z,3.20
2019-04-02T08:20:28.692Z,2.17
2019-04-02T08:23:00.389Z,4.43
2019-04-02T08:25:32.020Z,2.50
2019-04-02T08:28:02.635Z,2.37
2019-04-02T08:30:33.238Z,2.27
2019-04-02T08:33:03.634Z,2.67
2019-04-02T08:35:41.518Z,2.80
2019-04-02T08:38:15.951Z,2.30
2019-04-02T08:40:49.195Z,2.13
2019-04-02T08:43:21.480Z,2.40
2019-04-02T08:45:52.806Z,2.20
2019-04-02T08:48:42.483Z,2.70
2019-04-02T08:51:13.320Z,2.10
2019-04-02T08:53:44.490Z,2.63
2019-04-02T08:56:15.622Z,2.60
2019-04-02T08:58:51.757Z,2.13
2019-04-02T09:01:18.728Z,2.37
2019-04-02T09:03:49.829Z,1.60
2019-04-02T09:06:20.529Z,2.17
2019-04-02T09:08:51.448Z,2.52
2019-04-02T09:11:28.343Z,2.35
2019-04-02T09:13:54.384Z,2.10
2019-04-02T09:16:24.886Z,2.27
2019-04-02T09:18:55.609Z,2.33
2019-04-02T09:21:26.277Z,3.10
2019-04-02T09:23:58.655Z,2.67
2019-04-02T09:26:29.464Z,3.20
2019-04-02T09:29:00.674Z,3.20
2019-04-02T09:31:31.613Z,3.30
2019-04-02T09:34:05.020Z,3.60
2019-04-02T09:36:35.268Z,3.33
2019-04-02T09:39:09.157Z,2.80
2019-04-02T09:41:39.643Z,3.30
2019-04-02T09:44:12.400Z,3.40
2019-04-02T09:46:43.026Z,3.20
2019-04-02T09:49:14.308Z,3.42
2019-04-02T09:51:45.388Z,3.80
2019-04-02T09:54:15.991Z,3.57
2019-04-02T09:56:46.495Z,3.10
2019-04-02T09:59:16.961Z,3.90
2019-04-02T10:01:48.855Z,3.20
2019-04-02T10:04:19.280Z,3.33
2019-04-02T10:06:49.743Z,2.93
2019-04-02T10:09:20.156Z,2.90
2019-04-02T10:11:50.821Z,2.97
2019-04-02T10:14:21.491Z,3.33
2019-04-02T10:16:51.992Z,4.60
2019-04-02T10:19:22.498Z,4.60
2019-04-02T10:21:53.441Z,3.43
2019-04-02T10:24:24.045Z,3.72
2019-04-02T10:26:54.632Z,3.93
2019-04-02T10:29:26.951Z,4.07
2019-04-02T10:31:58.495Z,4.77
2019-04-02T10:34:29.288Z,3.43
2019-04-02T10:37:00.303Z,2.97
2019-04-02T10:39:32.485Z,3.67
2019-04-02T10:42:04.079Z,3.60
2019-04-02T10:44:42.958Z,4.13
2019-04-02T10:47:24.448Z,3.97
2019-04-02T10:49:55.005Z,4.10
2019-04-02T10:52:27.319Z,4.20
2019-04-02T10:54:59.378Z,3.77
2019-04-02T10:57:30.308Z,3.97
2019-04-02T11:00:00.932Z,3.73
2019-04-02T11:02:32.378Z,3.57
2019-04-02T11:05:06.534Z,3.57
2019-04-02T11:07:37.351Z,3.93
2019-04-02T11:10:10.237Z,4.17
2019-04-02T11:12:40.707Z,3.87
2019-04-02T11:15:13.865Z,4.75
2019-04-02T11:17:44.354Z,3.50
2019-04-02T11:20:15.481Z,3.60
2019-04-02T11:22:46.072Z,4.07
2019-04-02T11:25:18.172Z,4.27
2019-04-02T11:27:50.229Z,4.63
2019-04-02T11:30:21.059Z,4.35
2019-04-02T11:32:51.622Z,4.43
2019-04-02T11:35:22.174Z,3.93
2019-04-02T11:37:53.601Z,4.30
2019-04-02T11:40:25.984Z,3.83
2019-04-02T11:42:57.915Z,4.67
2019-04-02T11:45:28.409Z,3.97
2019-04-02T11:47:58.920Z,4.83
2019-04-02T11:50:31.150Z,4.10
2019-04-02T11:53:01.942Z,4.10
2019-04-02T11:55:32.486Z,3.73
2019-04-02T11:58:02.957Z,4.37
2019-04-02T12:00:35.048Z,4.50
2019-04-02T12:03:05.498Z,4.67
2019-04-02T12:05:36.549Z,5.07
2019-04-02T12:08:15.168Z,4.30
2019-04-02T12:10:42.666Z,5.12
2019-04-02T12:13:14.230Z,5.20
2019-04-02T12:15:49.670Z,5.75
2019-04-02T12:18:16.783Z,5.00
2019-04-02T12:20:48.598Z,4.60
2019-04-02T12:23:23.761Z,5.15
2019-04-02T12:25:54.365Z,5.12
2019-04-02T12:28:24.871Z,5.35
2019-04-02T12:30:55.524Z,5.28
2019-04-02T12:33:27.188Z,6.20
2019-04-02T12:35:57.591Z,5.33
2019-04-02T12:38:30.467Z,5.35
2019-04-02T12:41:03.927Z,5.00
2019-04-02T12:43:34.434Z,5.40
2019-04-02T12:46:04.888Z,6.10
2019-04-02T12:48:35.435Z,5.43
2019-04-02T12:51:05.835Z,6.27
2019-04-02T12:53:36.348Z,5.67
2019-04-02T12:56:07.145Z,6.13
2019-04-02T12:58:37.859Z,6.20
2019-04-02T13:01:10.331Z,5.80
2019-04-02T13:03:40.864Z,5.63
2019-04-02T13:06:11.367Z,6.33
2019-04-02T13:08:41.871Z,5.70
2019-04-02T13:11:15.286Z,5.67
2019-04-02T13:13:46.052Z,6.00
2019-04-02T13:16:20.700Z,7.73
2019-04-02T13:18:53.438Z,5.33
2019-04-02T13:21:26.591Z,5.70
2019-04-02T13:23:57.063Z,5.77
2019-04-02T13:26:28.011Z,4.20
2019-04-02T13:28:59.179Z,3.83
2019-04-02T13:31:29.689Z,4.40
2019-04-02T13:34:00.415Z,3.90
2019-04-02T13:36:30.900Z,4.20
2019-04-02T13:39:01.379Z,4.73
2019-04-02T13:41:31.847Z,4.40
2019-04-02T13:44:08.985Z,3.80
2019-04-02T13:46:41.053Z,4.23
2019-04-02T13:49:11.676Z,3.60
2019-04-02T13:51:45.093Z,4.40
2019-04-02T13:54:18.695Z,5.30
2019-04-02T13:56:49.129Z,4.57
2019-04-02T13:59:21.381Z,5.60
2019-04-02T14:01:53.969Z,4.23
2019-04-02T14:04:34.218Z,3.90
2019-04-02T14:07:15.028Z,4.17
2019-04-02T14:09:56.025Z,5.23
2019-04-02T14:12:29.826Z,3.57
2019-04-02T14:15:00.899Z,3.67
2019-04-02T14:17:31.692Z,3.50
2019-04-02T14:20:02.545Z,3.63
2019-04-02T14:22:33.351Z,3.90
2019-04-02T14:25:04.488Z,7.10
2019-04-02T14:27:37.136Z,4.13
2019-04-02T14:30:09.260Z,4.20
2019-04-02T14:32:44.055Z,3.80
2019-04-02T14:35:17.517Z,3.50
2019-04-02T14:37:49.643Z,3.30
2019-04-02T14:40:21.946Z,4.10
2019-04-02T14:42:56.521Z,3.87
2019-04-02T14:45:28.785Z,3.37
2019-04-02T14:48:00.279Z,4.13
2019-04-02T14:50:31.531Z,4.15
2019-04-02T14:53:06.432Z,4.13
2019-04-02T14:55:38.728Z,4.60
2019-04-02T14:58:09.057Z,3.10
2019-04-02T15:00:39.514Z,3.40
2019-04-02T15:03:09.930Z,4.10
2019-04-02T15:05:42.853Z,4.97
2019-04-02T15:08:14.019Z,4.60
2019-04-02T15:13:14.217Z,3.90
2019-04-02T15:15:45.107Z,4.10
2019-04-02T15:18:15.589Z,4.20
2019-04-02T15:21:05.712Z,4.00
2019-04-02T15:23:38.529Z,3.60
2019-04-02T15:26:09.076Z,3.93
2019-04-02T15:28:37.965Z,4.00
2019-04-02T15:31:08.422Z,4.10
2019-04-02T15:33:38.707Z,3.73
2019-04-02T15:36:09.151Z,4.80
2019-04-02T15:38:40.238Z,5.23
2019-04-02T15:41:11.201Z,5.67
2019-04-02T15:43:41.595Z,5.77
2019-04-02T15:46:11.939Z,5.60
2019-04-02T15:48:44.786Z,4.97
2019-04-02T15:51:16.085Z,4.80
2019-04-02T15:53:46.353Z,4.37
2019-04-02T15:58:45.232Z,4.37
2019-04-02T16:01:15.524Z,3.97
2019-04-02T16:03:47.693Z,4.20
2019-04-02T16:06:18.004Z,3.90
2019-04-02T16:08:49.598Z,3.90
2019-04-02T16:11:21.608Z,5.03
2019-04-02T16:13:52.056Z,4.60
2019-04-02T16:16:24.533Z,4.50
2019-04-02T16:18:55.468Z,4.40
2019-04-02T16:21:25.749Z,4.60
2019-04-02T16:26:24.646Z,5.30
2019-04-02T16:28:55.040Z,5.30
2019-04-02T16:31:25.478Z,5.03
2019-04-02T16:33:55.867Z,5.40
2019-04-02T16:36:26.285Z,5.77
2019-04-02T16:38:57.379Z,6.43
2019-04-02T16:41:27.917Z,6.20
2019-04-02T16:43:58.296Z,6.47
2019-04-02T16:46:28.821Z,6.10
2019-04-02T16:48:59.981Z,6.80
2019-04-02T16:51:30.610Z,5.97
2019-04-02T16:54:01.741Z,6.73
2019-04-02T16:56:32.206Z,6.53
2019-04-02T16:59:02.601Z,5.87
2019-04-02T17:01:34.813Z,5.90
2019-04-02T17:04:05.323Z,7.43
2019-04-02T17:06:36.462Z,6.00
2019-04-02T17:09:07.863Z,5.97
2019-04-02T17:11:38.391Z,4.87
2019-04-02T17:14:08.810Z,5.63
2019-04-02T17:16:39.591Z,5.73
2019-04-02T17:19:10.356Z,5.17
2019-04-02T17:21:46.697Z,5.60
2019-04-02T17:24:12.872Z,5.50
2019-04-02T17:26:43.325Z,6.27
2019-04-02T17:29:13.708Z,6.37
2019-04-02T17:31:44.166Z,6.73
2019-04-02T17:34:14.541Z,7.43
2019-04-02T17:36:45.406Z,6.70
2019-04-02T17:39:17.422Z,7.57
2019-04-02T17:41:50.258Z,7.23
2019-04-02T17:44:20.000Z,7.20
2019-04-02T17:46:50.418Z,6.83
2019-04-02T17:49:20.815Z,7.50
2019-04-02T17:51:51.329Z,8.40
2019-04-02T17:54:21.709Z,9.37
2019-04-02T17:56:52.062Z,9.00
2019-04-02T17:59:22.441Z,7.80
2019-04-02T18:01:52.865Z,6.63
2019-04-02T18:04:23.250Z,7.10
2019-04-02T18:06:54.995Z,6.30
2019-04-02T18:09:25.786Z,5.73
2019-04-02T18:11:56.098Z,5.60
2019-04-02T18:14:26.488Z,5.90
2019-04-02T18:16:56.837Z,6.50
2019-04-02T18:19:27.170Z,6.97
2019-04-02T18:21:57.587Z,6.60
2019-04-02T18:24:27.977Z,6.53
2019-04-02T18:26:58.399Z,5.77
2019-04-02T18:29:28.797Z,6.00
2019-04-02T18:32:01.473Z,6.27
2019-04-02T18:34:31.292Z,6.80
2019-04-02T18:37:01.728Z,7.80
2019-04-02T18:39:34.578Z,6.10
2019-04-02T18:42:04.234Z,7.00
2019-04-02T18:44:34.640Z,7.10
2019-04-02T18:47:05.070Z,7.03
2019-04-02T18:49:35.480Z,6.47
2019-04-02T18:52:06.005Z,6.50
2019-04-02T18:54:36.348Z,7.10
2019-04-02T18:57:06.766Z,6.03
2019-04-02T18:59:37.171Z,6.00
2019-04-02T19:02:07.621Z,5.77
2019-04-02T19:04:37.910Z,5.77
2019-04-02T19:07:08.350Z,6.20
2019-04-02T19:09:38.744Z,5.87
2019-04-02T19:12:13.239Z,5.90
2019-04-02T19:14:41.282Z,6.43
2019-04-02T19:17:11.706Z,6.90
2019-04-02T19:19:42.136Z,7.17
2019-04-02T19:22:12.558Z,6.83
2019-04-02T19:24:42.975Z,6.97
2019-04-02T19:27:13.422Z,7.03
2019-04-02T19:29:43.826Z,7.40
2019-04-02T19:32:14.280Z,7.40
2019-04-02T19:34:44.677Z,7.30
2019-04-02T19:37:15.551Z,6.43
2019-04-02T19:39:48.070Z,6.30
2019-04-02T19:42:18.099Z,6.10
2019-04-02T19:44:48.485Z,6.43
2019-04-02T19:47:18.928Z,5.47
2019-04-02T19:49:49.252Z,5.37
2019-04-02T19:52:19.776Z,5.53
2019-04-02T19:54:50.149Z,4.70
2019-04-02T19:57:20.705Z,5.20
2019-04-02T19:59:51.047Z,5.47
2019-04-02T20:02:19.920Z,5.10
2019-04-02T20:04:50.258Z,5.07
2019-04-02T20:07:20.641Z,5.03
2019-04-02T20:09:51.064Z,4.93
2019-04-02T20:12:21.467Z,4.83
2019-04-02T20:14:51.806Z,4.57
2019-04-02T20:17:22.103Z,5.67
2019-04-02T20:19:52.537Z,5.40
2019-04-02T20:22:22.808Z,6.13
2019-04-02T20:24:53.162Z,5.60
2019-04-02T20:27:23.547Z,6.07
2019-04-02T20:29:53.963Z,5.60
2019-04-02T20:32:24.348Z,6.70
2019-04-02T20:34:54.799Z,5.90
2019-04-02T20:37:26.665Z,6.40
2019-04-02T20:39:58.811Z,5.67
2019-04-02T20:42:29.672Z,6.10
2019-04-02T20:45:02.010Z,5.40
2019-04-02T20:47:33.511Z,5.40
2019-04-02T20:50:06.567Z,5.53
2019-04-02T20:52:38.159Z,5.87
2019-04-02T20:55:11.239Z,5.60
2019-04-02T20:57:42.615Z,5.17
2019-04-02T21:02:57.384Z,5.57
2019-04-02T21:05:28.663Z,6.57
2019-04-02T21:07:59.347Z,5.47
2019-04-02T21:10:32.508Z,6.47
2019-04-02T21:13:13.784Z,6.90
2019-04-02T21:15:37.187Z,6.97
2019-04-02T21:18:07.542Z,6.80
2019-04-02T21:20:37.937Z,5.97
2019-04-02T21:23:08.278Z,6.70
2019-04-02T21:25:41.019Z,6.87
2019-04-02T21:28:10.825Z,6.63
2019-04-02T21:30:41.219Z,5.97
2019-04-02T21:33:11.668Z,6.53
2019-04-02T21:35:44.347Z,7.20
2019-04-02T21:38:14.201Z,7.07
2019-04-02T21:40:44.975Z,6.10
2019-04-02T21:43:15.419Z,7.00
2019-04-02T21:45:45.805Z,6.60
2019-04-02T21:48:16.240Z,6.73
2019-04-02T21:50:46.625Z,5.27
2019-04-02T21:53:17.026Z,4.90
2019-04-02T21:55:47.335Z,5.23
2019-04-02T21:58:17.681Z,4.73
2019-04-02T22:00:52.455Z,4.47
2019-04-02T22:03:22.927Z,4.87
2019-04-02T22:05:53.417Z,4.80
2019-04-02T22:08:23.809Z,5.03
2019-04-02T22:10:54.112Z,4.73
2019-04-02T22:13:24.500Z,5.10
2019-04-02T22:15:54.893Z,5.20
2019-04-02T22:18:25.248Z,4.87
2019-04-02T22:20:55.641Z,5.20
2019-04-02T22:23:26.050Z,4.10
2019-04-02T22:25:56.323Z,4.07
2019-04-02T22:28:26.773Z,4.83
2019-04-02T22:30:57.234Z,4.80
2019-04-02T22:33:36.941Z,4.73
2019-04-02T22:35:58.822Z,4.57
2019-04-02T22:38:29.131Z,5.03
2019-04-02T22:40:59.467Z,4.60
2019-04-02T22:43:29.921Z,5.40
2019-04-02T22:46:00.428Z,5.37
2019-04-02T22:48:30.860Z,4.40
2019-04-02T22:51:01.135Z,4.90
2019-04-02T22:53:31.528Z,5.57
2019-04-02T22:56:02.766Z,5.47
2019-04-02T22:58:33.443Z,5.80
2019-04-02T23:03:53.349Z,5.97
2019-04-02T23:06:23.808Z,5.80
2019-04-02T23:08:54.312Z,6.00
2019-04-02T23:11:24.730Z,6.33
2019-04-02T23:13:55.243Z,6.67
2019-04-02T23:16:29.559Z,6.77
2019-04-02T23:19:07.534Z,6.17
2019-04-02T23:21:30.019Z,5.97
2019-04-02T23:24:00.544Z,5.43
2019-04-02T23:26:30.955Z,5.50
2019-04-02T23:29:01.397Z,5.40
2019-04-02T23:31:31.860Z,5.60
2019-04-02T23:34:02.319Z,5.03
2019-04-02T23:36:32.733Z,5.17
2019-04-02T23:39:04.118Z,5.50
2019-04-02T23:41:34.535Z,5.10
2019-04-02T23:44:07.726Z,5.07
2019-04-02T23:46:37.105Z,5.43
2019-04-02T23:49:07.588Z,5.17
2019-04-02T23:51:37.907Z,5.30
2019-04-02T23:54:08.425Z,5.20
2019-04-02T23:56:38.877Z,4.77
2019-04-02T23:59:09.393Z,4.93
